Time;durP1;ratioP1;P1;durP2;ratioP2;P2;SDS_P1;SDS_P2;PMS_P1;PMS_P2;Temp;Humidity;BMP_temperature;BMP_pressure;BME280_temperature;BME280_humidity;BME280_pressure;Samples;Min_cycle;Max_cycle;Signal;HPM_P1;HPM_P2
2023/03/09 00:00:17;;;;;;;17.00;16.30;;;19.80;45.60;;;;;;4950366;29;20536;-59
2023/03/09 00:02:44;;;;;;;15.70;15.23;;;19.80;45.60;;;;;;4953130;29;20483;-61
2023/03/09 00:05:12;;;;;;;17.00;16.30;;;19.80;45.70;;;;;;4953715;28;20504;-63
2023/03/09 00:07:40;;;;;;;15.77;15.30;;;19.80;45.70;;;;;;4953923;28;20490;-62
2023/03/09 00:10:08;;;;;;;15.53;15.03;;;19.80;45.70;;;;;;4953867;28;20560;-60
2023/03/09 00:12:35;;;;;;;16.93;16.33;;;19.80;45.70;;;;;;4953264;29;20921;-62
2023/03/09 00:15:02;;;;;;;16.93;16.13;;;19.80;45.70;;;;;;4953587;28;20552;-61
2023/03/09 00:17:29;;;;;;;16.77;16.20;;;19.80;45.70;;;;;;4953729;28;20540;-62
2023/03/09 00:20:00;;;;;;;15.50;15.00;;;19.80;45.70;;;;;;4953556;28;20531;-62
2023/03/09 00:22:27;;;;;;;15.93;15.43;;;19.80;45.80;;;;;;4953296;28;20484;-63
2023/03/09 00:24:56;;;;;;;15.93;15.23;;;19.80;45.80;;;;;;4953517;28;20504;-61
2023/03/09 00:27:23;;;;;;;16.20;15.70;;;19.80;45.90;;;;;;4953499;28;20452;-63
2023/03/09 00:29:50;;;;;;;17.10;16.50;;;19.80;45.90;;;;;;4953444;28;20883;-62
2023/03/09 00:32:16;;;;;;;16.70;16.10;;;19.80;46.40;;;;;;4953104;28;20993;-63
2023/03/09 00:34:43;;;;;;;15.30;14.80;;;19.80;45.90;;;;;;4953224;28;20907;-63
2023/03/09 00:37:10;;;;;;;15.73;15.23;;;19.80;45.90;;;;;;4953380;28;20883;-58
2023/03/09 00:39:37;;;;;;;16.60;16.10;;;19.80;45.90;;;;;;4953306;28;20526;-60
2023/03/09 00:42:06;;;;;;;16.60;16.00;;;19.80;46.00;;;;;;4953022;28;20449;-59
2023/03/09 00:44:33;;;;;;;15.93;15.40;;;19.80;46.00;;;;;;4953033;29;20911;-60
2023/03/09 00:46:59;;;;;;;16.33;15.77;;;19.80;46.00;;;;;;4953322;28;20507;-60
2023/03/09 00:49:26;;;;;;;16.10;15.50;;;19.80;46.00;;;;;;4953323;28;20476;-61
2023/03/09 00:51:53;;;;;;;15.10;14.70;;;19.80;46.00;;;;;;4952920;28;20523;-59
2023/03/09 00:54:20;;;;;;;15.27;14.77;;;19.70;46.10;;;;;;4952973;28;20499;-60
2023/03/09 00:56:47;;;;;;;15.60;15.17;;;19.80;46.10;;;;;;4953013;28;20480;-61
2023/03/09 00:59:15;;;;;;;16.23;15.73;;;19.80;46.20;;;;;;4953045;28;20480;-62
2023/03/09 01:01:42;;;;;;;15.53;15.03;;;19.70;46.10;;;;;;4952821;28;20891;-60
2023/03/09 01:04:09;;;;;;;19.93;19.30;;;19.80;46.20;;;;;;4952941;28;20505;-62
2023/03/09 01:06:36;;;;;;;19.63;18.47;;;19.70;46.10;;;;;;4953055;29;20844;-63
2023/03/09 01:09:03;;;;;;;19.00;18.30;;;19.70;46.10;;;;;;4952688;28;20488;-62
2023/03/09 01:11:30;;;;;;;18.30;17.80;;;19.70;46.10;;;;;;4952386;28;20449;-62
2023/03/09 01:13:57;;;;;;;19.80;19.10;;;19.70;46.10;;;;;;4951974;28;20500;-62
2023/03/09 01:16:25;;;;;;;17.83;17.23;;;19.70;46.10;;;;;;4952829;28;20476;-62
2023/03/09 01:18:52;;;;;;;18.03;17.30;;;19.70;46.10;;;;;;4952683;28;20524;-62
2023/03/09 01:21:19;;;;;;;18.93;18.33;;;19.70;46.20;;;;;;4952608;28;20449;-60
2023/03/09 01:23:46;;;;;;;15.43;14.93;;;19.70;46.20;;;;;;4952568;28;20496;-62
2023/03/09 01:26:13;;;;;;;15.07;14.67;;;19.70;46.20;;;;;;4952729;28;20449;-61
2023/03/09 01:28:40;;;;;;;16.50;16.00;;;19.70;46.10;;;;;;4952682;28;20453;-60
2023/03/09 01:31:09;;;;;;;18.40;17.70;;;19.70;46.10;;;;;;4952504;28;20452;-58
2023/03/09 01:33:37;;;;;;;17.27;16.67;;;19.80;46.20;;;;;;4952588;28;20488;-58
2023/03/09 01:36:06;;;;;;;17.30;16.70;;;19.70;46.10;;;;;;4953107;28;20448;-57
2023/03/09 01:38:33;;;;;;;15.40;14.90;;;19.80;46.20;;;;;;4952963;28;20990;-63
2023/03/09 01:41:00;;;;;;;16.30;15.80;;;19.70;46.10;;;;;;4952566;28;20487;-62
2023/03/09 01:43:36;;;;;;;14.90;14.40;;;19.70;46.10;;;;;;4952415;28;20489;-63
2023/03/09 01:46:35;;;;;;;14.70;14.20;;;19.70;46.10;;;;;;4952905;28;20448;-63
2023/03/09 01:49:08;;;;;;;15.80;15.20;;;19.70;46.10;;;;;;4953479;28;21017;-63
2023/03/09 01:51:40;;;;;;;14.90;14.40;;;19.70;46.10;;;;;;4964081;28;20488;-63
2023/03/09 01:54:09;;;;;;;15.93;15.43;;;19.70;46.10;;;;;;4967388;28;20473;-63
2023/03/09 01:56:38;;;;;;;16.53;15.80;;;19.80;46.20;;;;;;4967865;29;20448;-62
2023/03/09 01:59:07;;;;;;;15.77;15.23;;;19.70;46.10;;;;;;4968268;28;20464;-63
2023/03/09 02:01:36;;;;;;;16.00;15.50;;;19.80;46.20;;;;;;4967728;28;20463;-62
2023/03/09 02:04:09;;;;;;;15.70;14.90;;;19.80;46.30;;;;;;4967662;28;20469;-62
2023/03/09 02:06:36;;;;;;;16.20;15.60;;;19.80;46.20;;;;;;4955009;28;20477;-63
2023/03/09 02:09:17;;;;;;;16.57;16.07;;;19.80;46.20;;;;;;4952758;28;20452;-58
2023/03/09 02:11:45;;;;;;;15.80;15.30;;;19.80;46.20;;;;;;4952457;28;20860;-57
2023/03/09 02:14:14;;;;;;;16.10;15.60;;;19.80;46.30;;;;;;4952173;28;20507;-61
2023/03/09 02:16:41;;;;;;;16.13;15.53;;;19.70;46.30;;;;;;4952106;29;20480;-59
2023/03/09 02:19:20;;;;;;;15.00;14.50;;;19.80;46.30;;;;;;4951976;28;20990;-55
2023/03/09 02:21:52;;;;;;;16.00;15.40;;;19.70;46.20;;;;;;4952214;28;20484;-61
2023/03/09 02:24:34;;;;;;;16.13;15.63;;;19.80;46.30;;;;;;4952115;28;20508;-61
2023/03/09 02:27:10;;;;;;;15.67;15.23;;;19.80;46.30;;;;;;4952078;28;20865;-60
2023/03/09 02:29:38;;;;;;;15.17;14.77;;;19.70;46.20;;;;;;4951669;29;20448;-62
2023/03/09 02:32:05;;;;;;;15.20;14.80;;;19.80;46.30;;;;;;4951945;28;20926;-62
2023/03/09 02:34:32;;;;;;;16.93;16.33;;;19.70;46.30;;;;;;4952024;28;20512;-62
2023/03/09 02:36:59;;;;;;;17.17;16.67;;;19.70;46.30;;;;;;4952013;28;20484;-61
2023/03/09 02:39:35;;;;;;;15.33;14.93;;;19.70;46.30;;;;;;4951659;28;20476;-57
2023/03/09 02:42:04;;;;;;;15.00;14.50;;;19.70;46.40;;;;;;4951859;28;20445;-64
2023/03/09 02:44:33;;;;;;;16.33;15.63;;;19.70;46.40;;;;;;5011725;22;20618;-56
2023/03/09 02:47:01;;;;;;;16.10;15.60;;;19.70;46.40;;;;;;5060642;28;20440;-56
2023/03/09 02:49:28;;;;;;;15.83;15.33;;;19.70;46.30;;;;;;5042365;28;20456;-56
2023/03/09 02:51:55;;;;;;;15.47;15.07;;;19.80;46.40;;;;;;5033363;28;20812;-52
2023/03/09 02:54:22;;;;;;;15.23;14.63;;;19.80;46.40;;;;;;5032204;28;20892;-52
2023/03/09 02:56:49;;;;;;;15.70;15.20;;;19.80;46.40;;;;;;5032271;28;20472;-53
2023/03/09 02:59:15;;;;;;;15.97;15.47;;;19.70;46.40;;;;;;5044795;28;20483;-54
2023/03/09 03:01:44;;;;;;;16.50;16.00;;;19.70;46.40;;;;;;5051924;28;20487;-54
2023/03/09 03:04:11;;;;;;;15.53;15.03;;;19.70;46.40;;;;;;5052264;28;20974;-52
2023/03/09 03:06:37;;;;;;;15.03;14.53;;;19.70;46.40;;;;;;5052397;28;20472;-57
2023/03/09 03:09:05;;;;;;;15.90;15.40;;;19.70;46.40;;;;;;5051805;28;20463;-53
2023/03/09 03:11:32;;;;;;;16.23;15.73;;;19.70;46.40;;;;;;5051795;28;20906;-53
2023/03/09 03:13:59;;;;;;;15.27;14.87;;;19.70;46.40;;;;;;5051842;28;20671;-53
2023/03/09 03:16:26;;;;;;;15.20;14.80;;;19.70;46.30;;;;;;5051674;28;20855;-54
2023/03/09 03:18:55;;;;;;;15.97;15.47;;;19.70;46.30;;;;;;5052050;28;20524;-54
2023/03/09 03:21:21;;;;;;;16.10;15.60;;;19.70;46.30;;;;;;5051978;28;20484;-53
2023/03/09 03:23:48;;;;;;;16.00;15.50;;;19.70;46.30;;;;;;5051804;28;20476;-52
2023/03/09 03:26:15;;;;;;;14.70;14.30;;;19.70;46.30;;;;;;5051243;28;20977;-52
2023/03/09 03:28:42;;;;;;;16.63;16.13;;;19.70;46.30;;;;;;5051501;28;20458;-52
2023/03/09 03:31:10;;;;;;;15.80;15.40;;;19.70;46.40;;;;;;5051694;28;20449;-53
2023/03/09 03:33:38;;;;;;;15.70;15.20;;;19.70;46.40;;;;;;5051590;28;20515;-54
2023/03/09 03:36:07;;;;;;;15.87;15.27;;;19.70;46.40;;;;;;5051021;28;20500;-54
2023/03/09 03:38:34;;;;;;;15.30;14.90;;;19.70;46.40;;;;;;5051715;28;20926;-53
2023/03/09 03:41:01;;;;;;;15.40;15.00;;;19.70;46.40;;;;;;5051573;28;20498;-55
2023/03/09 03:43:28;;;;;;;15.03;14.63;;;19.70;46.40;;;;;;5051609;28;20494;-53
2023/03/09 03:45:54;;;;;;;16.10;15.60;;;19.70;46.40;;;;;;5039915;28;20472;-55
2023/03/09 03:48:21;;;;;;;16.20;15.60;;;19.70;46.40;;;;;;5031627;28;20528;-53
2023/03/09 03:50:48;;;;;;;15.50;15.00;;;19.70;46.40;;;;;;5031771;28;20484;-53
2023/03/09 03:53:16;;;;;;;15.77;15.27;;;19.70;46.40;;;;;;5031214;28;20520;-53
2023/03/09 03:55:44;;;;;;;15.70;15.30;;;19.70;46.40;;;;;;5031451;28;20987;-53
2023/03/09 03:58:11;;;;;;;15.90;15.40;;;19.70;46.40;;;;;;5031679;28;20556;-55
2023/03/09 04:00:38;;;;;;;15.20;14.70;;;19.70;46.40;;;;;;5031886;28;20484;-53
2023/03/09 04:03:05;;;;;;;15.10;14.60;;;19.70;46.40;;;;;;5031464;28;20445;-54
2023/03/09 04:05:32;;;;;;;14.53;14.03;;;19.70;46.40;;;;;;5032190;28;20503;-53
2023/03/09 04:07:59;;;;;;;15.93;15.40;;;19.80;46.60;;;;;;5032102;28;20487;-54
2023/03/09 04:10:28;;;;;;;16.20;15.70;;;19.80;46.50;;;;;;5031710;28;20449;-53
2023/03/09 04:12:55;;;;;;;15.43;14.93;;;19.80;46.50;;;;;;5031489;28;20507;-54
2023/03/09 04:15:22;;;;;;;15.97;15.47;;;19.70;46.50;;;;;;5031609;28;20523;-55
2023/03/09 04:17:49;;;;;;;15.70;15.20;;;19.70;47.00;;;;;;5031443;28;20842;-54
2023/03/09 04:20:16;;;;;;;15.47;15.07;;;19.80;46.70;;;;;;5031927;28;20488;-54
2023/03/09 04:22:43;;;;;;;16.17;15.57;;;19.80;46.70;;;;;;5031540;28;20473;-57
2023/03/09 04:25:10;;;;;;;16.20;15.70;;;19.80;46.70;;;;;;5031386;28;20496;-55
2023/03/09 04:27:38;;;;;;;14.90;14.50;;;19.80;46.70;;;;;;5031460;28;20456;-53
2023/03/09 04:30:06;;;;;;;16.17;15.67;;;19.80;46.70;;;;;;5031553;28;20868;-55
2023/03/09 04:32:33;;;;;;;17.33;16.67;;;19.80;46.70;;;;;;5031305;28;20491;-53
2023/03/09 04:35:00;;;;;;;15.90;15.40;;;19.70;46.70;;;;;;5031467;28;20500;-56
2023/03/09 04:37:27;;;;;;;15.93;15.43;;;19.80;46.80;;;;;;5031509;28;20480;-54
2023/03/09 04:39:54;;;;;;;16.57;16.07;;;19.80;46.70;;;;;;5031370;28;20488;-53
2023/03/09 04:42:21;;;;;;;18.07;17.43;;;19.80;46.70;;;;;;5031268;28;20972;-58
2023/03/09 04:44:49;;;;;;;16.80;16.20;;;19.80;46.60;;;;;;5031207;28;21013;-53
2023/03/09 04:47:16;;;;;;;18.83;18.07;;;19.90;46.60;;;;;;5031625;28;20488;-57
2023/03/09 04:49:43;;;;;;;16.30;15.70;;;19.90;46.60;;;;;;5034602;28;20481;-53
2023/03/09 04:52:10;;;;;;;15.97;15.47;;;19.80;46.50;;;;;;5034443;28;20480;-56
2023/03/09 04:54:37;;;;;;;16.10;15.60;;;19.80;46.40;;;;;;5034569;28;20910;-54
2023/03/09 04:57:04;;;;;;;16.87;16.37;;;19.80;46.40;;;;;;5035111;28;20469;-53
2023/03/09 04:59:31;;;;;;;18.13;17.53;;;19.90;46.50;;;;;;5034664;28;20869;-52
2023/03/09 05:01:59;;;;;;;17.77;17.17;;;19.90;46.50;;;;;;5034331;28;20500;-53
2023/03/09 05:04:26;;;;;;;18.10;17.40;;;19.90;46.30;;;;;;5034509;28;20870;-53
2023/03/09 05:06:53;;;;;;;17.53;16.83;;;20.00;46.30;;;;;;5034543;28;20445;-56
2023/03/09 05:09:20;;;;;;;16.70;16.07;;;20.00;46.20;;;;;;5034431;28;20487;-52
2023/03/09 05:11:51;;;;;;;18.90;18.10;;;20.00;46.20;;;;;;5033795;28;20504;-55
2023/03/09 05:14:18;;;;;;;16.50;15.87;;;20.00;46.10;;;;;;5034207;28;20515;-56
2023/03/09 05:16:45;;;;;;;17.20;16.50;;;20.10;46.20;;;;;;5034258;28;20875;-55
2023/03/09 05:19:13;;;;;;;15.90;15.30;;;20.00;46.20;;;;;;5034300;28;20476;-53
2023/03/09 05:21:40;;;;;;;16.40;15.80;;;20.10;46.30;;;;;;5034127;28;20493;-52
2023/03/09 05:24:08;;;;;;;15.90;15.40;;;20.10;46.30;;;;;;5034314;28;20975;-53
2023/03/09 05:26:34;;;;;;;17.50;16.80;;;20.10;46.40;;;;;;5034056;28;20536;-53
2023/03/09 05:29:01;;;;;;;15.87;15.30;;;20.20;46.70;;;;;;5034259;28;20484;-54
2023/03/09 05:31:28;;;;;;;16.77;16.07;;;20.20;47.00;;;;;;5033927;28;20479;-52
2023/03/09 05:33:55;;;;;;;17.30;16.50;;;20.20;47.30;;;;;;5034264;28;20560;-55
2023/03/09 05:36:25;;;;;;;17.13;15.97;;;20.20;47.90;;;;;;5033884;28;20901;-55
2023/03/09 05:38:53;;;;;;;18.17;16.70;;;20.30;48.90;;;;;;5033816;28;20532;-58
2023/03/09 05:41:21;;;;;;;16.40;15.70;;;20.20;49.00;;;;;;5033867;28;20456;-54
2023/03/09 05:43:47;;;;;;;16.97;15.97;;;20.30;48.90;;;;;;5033824;28;20867;-55
2023/03/09 05:46:16;;;;;;;17.57;16.57;;;20.30;48.60;;;;;;5033698;28;20508;-56
2023/03/09 05:48:44;;;;;;;17.33;16.37;;;20.40;48.40;;;;;;5033783;28;20482;-55
2023/03/09 05:51:12;;;;;;;16.80;15.83;;;20.40;48.10;;;;;;5033571;28;20528;-55
2023/03/09 05:53:40;;;;;;;18.20;17.40;;;20.40;47.80;;;;;;5033632;28;20579;-55
2023/03/09 05:56:08;;;;;;;17.73;17.03;;;20.40;47.70;;;;;;5033721;28;20504;-54
2023/03/09 05:58:35;;;;;;;17.13;16.33;;;20.40;47.50;;;;;;5032980;28;20476;-54
2023/03/09 06:01:02;;;;;;;16.60;15.80;;;20.40;47.30;;;;;;5033519;28;20481;-56
2023/03/09 06:03:29;;;;;;;17.53;16.70;;;20.50;47.30;;;;;;5033478;28;20873;-53
2023/03/09 06:06:00;;;;;;;17.90;17.20;;;20.50;47.10;;;;;;5033513;28;20827;-56
2023/03/09 06:08:28;;;;;;;17.70;16.90;;;20.40;46.90;;;;;;5033419;28;20484;-53
2023/03/09 06:10:58;;;;;;;16.50;15.87;;;20.50;46.90;;;;;;5033332;28;20473;-55
2023/03/09 06:13:24;;;;;;;15.37;14.23;;;20.50;46.70;;;;;;5033221;28;20520;-55
2023/03/09 06:15:51;;;;;;;17.37;16.60;;;20.50;46.60;;;;;;5033314;28;20493;-54
2023/03/09 06:18:18;;;;;;;16.27;15.43;;;20.50;46.50;;;;;;5033392;28;20869;-59
2023/03/09 06:20:46;;;;;;;15.60;14.90;;;20.50;46.40;;;;;;5033365;28;20500;-56
2023/03/09 06:23:12;;;;;;;15.40;14.70;;;20.60;46.40;;;;;;5033014;28;20473;-57
2023/03/09 06:25:40;;;;;;;16.37;15.77;;;20.60;46.30;;;;;;5033050;28;20497;-57
2023/03/09 06:28:09;;;;;;;15.77;15.27;;;20.60;46.80;;;;;;5032747;28;20477;-56
2023/03/09 06:30:38;;;;;;;17.07;16.30;;;20.60;46.20;;;;;;5032901;28;20576;-54
2023/03/09 06:33:05;;;;;;;16.53;15.80;;;20.60;46.10;;;;;;5032993;28;20477;-56
2023/03/09 06:35:33;;;;;;;16.67;15.37;;;20.60;46.10;;;;;;5032651;28;20496;-55
2023/03/09 06:38:01;;;;;;;16.97;16.17;;;20.60;46.00;;;;;;5032682;28;20487;-55
2023/03/09 06:40:28;;;;;;;16.77;16.07;;;20.70;46.00;;;;;;5033014;28;20932;-58
2023/03/09 06:42:55;;;;;;;17.27;16.10;;;20.60;45.90;;;;;;5032653;28;20489;-56
2023/03/09 06:45:23;;;;;;;15.63;15.03;;;20.70;45.90;;;;;;5032665;28;20476;-57
2023/03/09 06:47:54;;;;;;;16.57;15.57;;;20.70;45.90;;;;;;5032824;28;20484;-58
2023/03/09 06:50:21;;;;;;;16.43;15.93;;;20.70;45.80;;;;;;5032515;28;20535;-58
2023/03/09 06:52:48;;;;;;;15.90;15.20;;;20.70;45.80;;;;;;5032502;28;20981;-57
2023/03/09 06:55:15;;;;;;;15.87;15.37;;;20.70;45.70;;;;;;5032283;28;20927;-54
2023/03/09 06:57:42;;;;;;;16.20;15.50;;;20.70;45.70;;;;;;5032332;28;20473;-57
2023/03/09 07:00:11;;;;;;;15.20;14.60;;;20.80;45.70;;;;;;5032290;28;20483;-57
2023/03/09 07:02:40;;;;;;;15.27;14.77;;;20.80;45.70;;;;;;5032366;28;20972;-57
2023/03/09 07:05:08;;;;;;;15.50;14.80;;;20.80;45.60;;;;;;5032215;28;20504;-57
2023/03/09 07:07:35;;;;;;;16.37;15.57;;;20.80;45.60;;;;;;5032305;28;20491;-54
2023/03/09 07:10:03;;;;;;;16.63;16.00;;;20.80;45.50;;;;;;5032127;28;20481;-57
2023/03/09 07:12:30;;;;;;;15.77;15.20;;;20.80;45.50;;;;;;5031603;28;20453;-55
2023/03/09 07:14:57;;;;;;;16.03;15.43;;;20.80;45.40;;;;;;5032111;28;20938;-55
2023/03/09 07:17:24;;;;;;;16.13;15.53;;;20.80;45.40;;;;;;5032120;28;20884;-59
2023/03/09 07:19:52;;;;;;;16.97;16.37;;;20.80;45.30;;;;;;5032009;28;20507;-57
2023/03/09 07:22:20;;;;;;;17.20;16.40;;;20.80;45.30;;;;;;5032001;28;20445;-54
2023/03/09 07:24:47;;;;;;;18.13;17.40;;;20.80;45.30;;;;;;5031968;28;20469;-55
2023/03/09 07:27:14;;;;;;;16.80;16.20;;;20.80;45.30;;;;;;5031905;28;20480;-54
2023/03/09 07:29:41;;;;;;;17.03;16.37;;;20.80;45.20;;;;;;5031920;28;20484;-58
2023/03/09 07:32:08;;;;;;;16.03;15.53;;;20.80;45.20;;;;;;5032094;28;20793;-55
2023/03/09 07:34:36;;;;;;;16.43;15.93;;;20.80;45.20;;;;;;5031977;28;20477;-54
2023/03/09 07:37:04;;;;;;;16.23;15.60;;;20.90;45.20;;;;;;5031969;28;20483;-55
2023/03/09 07:39:32;;;;;;;16.87;16.27;;;20.80;45.10;;;;;;5032205;28;20477;-57
2023/03/09 07:41:58;;;;;;;15.87;15.27;;;20.80;45.10;;;;;;5031689;28;20480;-58
2023/03/09 07:44:25;;;;;;;16.03;15.37;;;20.80;45.00;;;;;;5031612;28;20551;-56
2023/03/09 07:46:52;;;;;;;16.43;15.83;;;20.80;45.00;;;;;;5031964;28;20473;-58
2023/03/09 07:49:19;;;;;;;16.73;16.13;;;20.80;45.00;;;;;;5031629;28;20481;-54
2023/03/09 07:51:46;;;;;;;16.30;15.70;;;20.80;45.50;;;;;;5031806;28;20473;-57
2023/03/09 07:54:15;;;;;;;15.60;15.10;;;20.80;45.00;;;;;;5031573;28;20979;-57
2023/03/09 07:56:45;;;;;;;16.67;16.10;;;20.90;45.00;;;;;;5031587;28;20441;-56
2023/03/09 07:59:15;;;;;;;16.37;15.83;;;20.80;45.10;;;;;;5031822;28;20952;-54
2023/03/09 08:01:42;;;;;;;15.13;14.63;;;20.80;45.00;;;;;;5031604;28;20451;-54
2023/03/09 08:04:09;;;;;;;16.07;15.47;;;20.80;44.90;;;;;;5031429;28;20488;-54
2023/03/09 08:06:38;;;;;;;17.60;17.00;;;20.80;44.90;;;;;;5031747;28;20476;-57
2023/03/09 08:09:06;;;;;;;16.77;16.10;;;20.80;44.90;;;;;;5031701;28;20481;-55
2023/03/09 08:11:34;;;;;;;16.33;15.77;;;20.90;44.90;;;;;;5031424;28;20520;-55
2023/03/09 08:14:01;;;;;;;15.43;14.80;;;20.90;44.90;;;;;;5031314;28;20518;-56
2023/03/09 08:16:28;;;;;;;16.23;15.63;;;20.90;44.90;;;;;;5031664;28;20489;-57
2023/03/09 08:18:55;;;;;;;16.30;15.50;;;20.90;44.90;;;;;;5031664;28;20456;-57
2023/03/09 08:21:22;;;;;;;16.37;15.60;;;20.90;44.90;;;;;;5031462;28;20481;-58
2023/03/09 08:23:50;;;;;;;15.83;15.23;;;20.90;44.80;;;;;;5035111;28;20971;-55
2023/03/09 08:26:18;;;;;;;16.43;15.83;;;20.90;44.80;;;;;;5034921;28;20480;-55
2023/03/09 08:28:47;;;;;;;17.20;16.60;;;20.90;44.80;;;;;;5034845;28;20480;-55
2023/03/09 08:31:17;;;;;;;17.47;16.87;;;20.90;44.80;;;;;;5034765;28;20974;-57
2023/03/09 08:33:46;;;;;;;17.23;16.53;;;21.00;44.80;;;;;;5034793;28;20452;-59
2023/03/09 08:36:15;;;;;;;17.13;16.53;;;21.00;44.80;;;;;;5034813;28;20555;-53
2023/03/09 08:38:42;;;;;;;16.87;16.27;;;21.00;44.70;;;;;;5035073;28;20540;-54
2023/03/09 08:41:09;;;;;;;16.83;16.20;;;21.00;44.70;;;;;;5034850;28;20481;-57
2023/03/09 08:43:36;;;;;;;16.00;15.50;;;21.00;44.70;;;;;;5034779;28;20503;-58
2023/03/09 08:46:04;;;;;;;16.40;15.80;;;21.00;44.60;;;;;;5079965;23;20533;-58
2023/03/09 08:48:32;;;;;;;16.73;16.23;;;21.00;44.60;;;;;;5058047;28;20474;-60
2023/03/09 08:51:00;;;;;;;16.70;16.00;;;21.00;44.60;;;;;;5074433;28;20478;-59
2023/03/09 08:53:27;;;;;;;16.60;16.00;;;21.00;44.60;;;;;;5074110;28;20534;-58
2023/03/09 08:55:54;;;;;;;16.90;16.30;;;21.00;44.60;;;;;;5061126;28;20514;-59
2023/03/09 08:58:21;;;;;;;17.70;17.10;;;21.00;44.60;;;;;;5054243;28;20819;-59
2023/03/09 09:00:48;;;;;;;17.17;16.57;;;21.00;44.50;;;;;;5054180;28;20452;-59
2023/03/09 09:03:17;;;;;;;17.30;16.60;;;21.00;44.50;;;;;;5053774;28;20945;-61
2023/03/09 09:05:44;;;;;;;15.97;15.37;;;20.90;44.40;;;;;;5054082;28;20515;-60
2023/03/09 09:08:10;;;;;;;15.93;15.43;;;20.90;44.40;;;;;;5054073;28;20476;-61
2023/03/09 09:10:42;;;;;;;17.00;16.40;;;20.90;44.40;;;;;;5054090;28;20480;-60
2023/03/09 09:13:09;;;;;;;14.83;14.33;;;20.90;44.40;;;;;;5053766;28;20448;-60
2023/03/09 09:15:37;;;;;;;15.80;15.30;;;20.90;44.40;;;;;;5053900;28;20480;-59
2023/03/09 09:18:04;;;;;;;17.57;16.97;;;20.90;44.40;;;;;;5053809;28;20506;-61
2023/03/09 09:20:33;;;;;;;15.47;14.97;;;21.00;44.50;;;;;;5053777;28;20484;-62
2023/03/09 09:23:00;;;;;;;16.57;15.97;;;21.00;44.50;;;;;;5053597;28;20486;-60
2023/03/09 09:25:27;;;;;;;15.53;14.97;;;21.00;44.50;;;;;;5053625;28;20516;-59
2023/03/09 09:27:54;;;;;;;16.43;15.73;;;21.00;44.50;;;;;;5053672;28;20482;-60
2023/03/09 09:30:22;;;;;;;16.93;16.33;;;21.00;44.50;;;;;;5053586;28;20533;-59
2023/03/09 09:32:49;;;;;;;17.80;17.20;;;21.00;44.50;;;;;;5053338;28;20527;-61
2023/03/09 09:35:16;;;;;;;17.00;16.40;;;21.00;44.50;;;;;;5052667;28;20516;-60
2023/03/09 09:37:44;;;;;;;16.83;16.23;;;21.00;44.40;;;;;;5053500;28;20483;-60
2023/03/09 09:40:13;;;;;;;17.57;16.90;;;21.10;44.50;;;;;;5053401;28;21278;-61
2023/03/09 09:42:43;;;;;;;17.53;16.93;;;21.00;44.90;;;;;;5053094;28;20484;-60
2023/03/09 09:45:28;;;;;;;17.77;17.07;;;21.10;44.50;;;;;;5053125;28;20476;-60
2023/03/09 09:47:58;;;;;;;16.40;15.90;;;21.10;44.50;;;;;;5053446;28;20528;-61
2023/03/09 09:50:37;;;;;;;16.57;16.07;;;21.10;44.40;;;;;;5053139;28;20479;-61
2023/03/09 09:53:11;;;;;;;17.70;17.00;;;21.10;44.40;;;;;;5053122;28;20452;-61
2023/03/09 09:55:40;;;;;;;16.40;15.90;;;21.10;44.40;;;;;;5053053;28;20518;-60
2023/03/09 09:58:17;;;;;;;17.93;17.33;;;21.10;44.40;;;;;;5052949;28;20487;-61
2023/03/09 10:00:48;;;;;;;17.50;16.90;;;21.10;44.40;;;;;;5053150;28;21113;-61
2023/03/09 10:03:20;;;;;;;16.70;16.20;;;21.10;44.40;;;;;;5052831;28;20476;-61
2023/03/09 10:05:51;;;;;;;17.30;16.80;;;21.10;44.30;;;;;;5052972;28;20457;-61
2023/03/09 10:08:28;;;;;;;16.83;16.23;;;21.10;44.40;;;;;;5052962;28;20982;-62
2023/03/09 10:11:01;;;;;;;16.87;16.37;;;21.10;44.40;;;;;;5053055;28;20472;-61
2023/03/09 10:13:34;;;;;;;17.23;16.53;;;21.10;44.30;;;;;;5052586;28;20479;-62
2023/03/09 10:16:08;;;;;;;16.03;15.33;;;21.10;44.30;;;;;;5052550;28;20566;-61
2023/03/09 10:18:39;;;;;;;15.80;15.30;;;21.10;44.30;;;;;;5052663;28;20444;-62
2023/03/09 10:21:12;;;;;;;17.30;16.70;;;21.10;44.30;;;;;;5052622;28;20487;-59
2023/03/09 10:23:42;;;;;;;15.87;15.27;;;21.10;44.30;;;;;;5052654;28;20462;-62
2023/03/09 10:26:22;;;;;;;15.40;14.90;;;21.00;44.20;;;;;;5052511;28;20494;-62
2023/03/09 10:28:52;;;;;;;16.17;15.67;;;21.10;44.20;;;;;;5052499;28;20535;-61
2023/03/09 10:31:24;;;;;;;16.77;16.17;;;21.10;44.20;;;;;;5052471;28;20483;-62
2023/03/09 10:33:59;;;;;;;16.73;16.13;;;21.00;44.10;;;;;;5052420;28;20484;-60
2023/03/09 10:36:30;;;;;;;16.97;16.40;;;21.10;44.20;;;;;;5052327;28;20523;-61
2023/03/09 10:39:04;;;;;;;16.60;16.00;;;21.10;44.20;;;;;;5052513;28;20501;-61
2023/03/09 10:41:31;;;;;;;16.37;15.87;;;21.10;44.20;;;;;;5052155;28;20448;-60
2023/03/09 10:43:59;;;;;;;16.40;15.80;;;21.10;44.20;;;;;;5052156;28;20476;-57
2023/03/09 10:46:27;;;;;;;16.70;16.00;;;21.10;44.30;;;;;;5050989;28;20510;-60
2023/03/09 10:49:10;;;;;;;17.60;16.90;;;21.10;44.30;;;;;;5052175;28;20539;-59
2023/03/09 10:51:41;;;;;;;16.80;16.00;;;21.10;44.30;;;;;;5052131;28;20509;-59
2023/03/09 10:54:23;;;;;;;16.60;16.00;;;21.10;44.30;;;;;;5052000;28;20447;-59
2023/03/09 10:56:51;;;;;;;16.70;16.10;;;21.10;44.30;;;;;;5052174;28;20498;-61
2023/03/09 10:59:20;;;;;;;16.97;16.37;;;21.20;44.90;;;;;;5052052;28;20455;-58
2023/03/09 11:01:49;;;;;;;16.53;15.97;;;21.10;44.30;;;;;;5051953;28;20475;-60
2023/03/09 11:04:35;;;;;;;17.70;17.10;;;21.20;44.30;;;;;;5052216;28;20448;-58
2023/03/09 11:07:04;;;;;;;16.50;15.90;;;21.10;44.30;;;;;;5052127;28;20440;-61
2023/03/09 11:09:36;;;;;;;17.30;16.77;;;21.20;44.30;;;;;;5052122;28;20476;-61
2023/03/09 11:12:16;;;;;;;17.03;16.43;;;21.20;44.30;;;;;;5052072;28;20790;-60
2023/03/09 11:14:46;;;;;;;16.30;15.73;;;21.20;44.30;;;;;;5052228;28;20487;-58
2023/03/09 11:17:37;;;;;;;16.03;15.50;;;21.20;44.30;;;;;;5052609;28;20479;-59
2023/03/09 11:20:29;;;;;;;17.73;17.13;;;21.20;44.30;;;;;;5059348;28;20452;-61
2023/03/09 11:23:04;;;;;;;18.90;18.10;;;21.20;44.30;;;;;;5063724;28;20444;-61
2023/03/09 11:25:46;;;;;;;15.70;15.20;;;21.20;44.30;;;;;;5064544;28;20455;-60
2023/03/09 11:28:24;;;;;;;16.93;16.43;;;21.20;44.30;;;;;;5063961;28;20447;-60
2023/03/09 11:30:54;;;;;;;16.43;15.83;;;21.10;44.10;;;;;;5066944;28;20447;-61
2023/03/09 11:33:21;;;;;;;16.97;16.40;;;21.20;44.20;;;;;;5067671;28;20440;-61
2023/03/09 11:35:51;;;;;;;17.20;16.70;;;21.20;44.20;;;;;;5055479;28;20511;-62
2023/03/09 11:38:20;;;;;;;17.63;17.03;;;21.20;44.20;;;;;;5052062;28;20476;-56
2023/03/09 11:40:50;;;;;;;16.83;16.23;;;21.10;44.10;;;;;;5051979;28;20466;-59
2023/03/09 11:43:22;;;;;;;17.30;16.70;;;21.10;44.10;;;;;;5051924;28;20478;-59
2023/03/09 11:45:49;;;;;;;16.80;16.20;;;21.20;44.20;;;;;;5051744;28;20504;-61
2023/03/09 11:48:23;;;;;;;16.30;15.80;;;21.20;44.10;;;;;;5051998;28;20869;-61
2023/03/09 11:51:01;;;;;;;19.17;18.47;;;21.10;44.10;;;;;;5052002;28;20483;-61
2023/03/09 11:53:32;;;;;;;16.63;16.00;;;21.10;44.10;;;;;;5051733;28;20444;-60
2023/03/09 11:56:11;;;;;;;17.37;16.77;;;21.20;44.20;;;;;;5051530;28;20571;-60
2023/03/09 11:58:41;;;;;;;15.77;15.27;;;21.10;44.10;;;;;;5055286;28;20490;-62
2023/03/09 12:01:16;;;;;;;16.73;16.17;;;21.20;44.20;;;;;;5056110;28;20455;-62
2023/03/09 12:03:48;;;;;;;15.93;15.43;;;21.20;44.20;;;;;;5055834;28;20481;-62
2023/03/09 12:06:28;;;;;;;17.07;16.47;;;21.20;44.30;;;;;;5055365;28;20522;-61
2023/03/09 12:08:58;;;;;;;17.00;16.50;;;21.20;44.30;;;;;;5055391;28;21149;-61
2023/03/09 12:11:30;;;;;;;17.37;16.87;;;21.20;44.30;;;;;;5055000;28;20503;-60
2023/03/09 12:14:02;;;;;;;17.10;16.60;;;21.20;44.30;;;;;;5055313;28;20543;-59
2023/03/09 12:16:33;;;;;;;17.80;17.20;;;21.20;44.30;;;;;;5054933;28;20520;-59
2023/03/09 12:19:04;;;;;;;17.63;17.03;;;21.20;44.30;;;;;;5055078;28;20448;-58
2023/03/09 12:21:34;;;;;;;16.73;16.23;;;21.20;44.30;;;;;;5054899;28;20936;-61
2023/03/09 12:24:20;;;;;;;17.57;17.00;;;21.20;44.30;;;;;;5054876;28;20950;-59
2023/03/09 12:27:00;;;;;;;17.20;16.70;;;21.30;44.40;;;;;;5054870;28;20513;-61
2023/03/09 12:29:32;;;;;;;17.40;16.80;;;21.30;44.30;;;;;;5054956;28;20856;-60
2023/03/09 12:32:33;;;;;;;15.80;15.30;;;21.30;44.30;;;;;;5054866;28;20475;-60
2023/03/09 12:35:02;;;;;;;16.00;15.50;;;21.30;44.30;;;;;;5054609;28;20495;-59
2023/03/09 12:38:20;;;;;;;17.83;17.23;;;21.30;44.30;;;;;;5054688;28;20472;-57